Terminal Aerodrome Forecast
Issued by NWS Denver/Boulder, CO

Home | Current Version | Previous Version | Text Only | Print | Product List | Glossary On
Versions: 1 2 3 4 5 6 7 8 9 10 11 12 13 14 15 16 17 18 19 20 21 22 23 24 25 26 27 28 29 30 31 32 33 34 35 36 37 38 39 40 41 42 43 44 45 46 47 48 49 50
000
FTUS45 KBOU 212340
TAFDEN
TAF
KDEN 212340Z 2200/2306 36007KT P6SM FEW100 BKN160
     FM220200 33008KT P6SM FEW070 BKN090 BKN120
     FM220300 30008KT P6SM VCSH SCT050 BKN070 OVC100
     FM220600 25007KT P6SM SCT080 BKN140
     FM221400 21010KT P6SM FEW140 SCT220
     FM221900 17008KT P6SM FEW220
     FM222300 13013KT P6SM FEW080 SCT120 BKN200=

USA.gov is the U.S. government's official web portal to all federal, state and local government web resources and services.